Item Display Status Serial CT Sensor

Mooring Depth: 1 m

 

Deployed Sensor

  • Serial Number: 3291
  • NDBC Property Number: 23967
  • Start Date: 1/30/2015 (12:57:28 Z)
  • End Date: 2/26/2016 (16:48:00 Z)
Water Temperature [°C]     6 entries per hour
Showing data from 10/20/2015 (20:00:00 Z) to 10/19/2015 (00:00:01 Z)
Previous Next [ Day | 3-Days | 7-Days ]
First Last
Prev [ Day | 3-Days | 7-Days ] Next
First Last

Start Time:     :
End Time:     :     
Time (in GMT) :00 :50 :40 :30 :20 :10
Previous Next [ Day | 3-Days | 7-Days ]
First Last
Prev [ Day | 3-Days | 7-Days ] Next
First Last


123 => good data
MM => data is determined as missing
-- => data not received/configured
Back to Top Back to Top
10/20/2015 20:00 to 19:10 28.771 28.768 28.764 28.763 28.754 28.751
10/20/2015 19:00 to 18:10 28.753 28.744 28.741 28.734 28.731 28.721
10/20/2015 18:00 to 17:10 28.724 28.718 28.719 28.711 28.708 28.699
10/20/2015 17:00 to 16:10 28.693 28.689 28.679 28.668 28.667 28.672
10/20/2015 16:00 to 15:10 28.672 28.668 28.677 28.677 28.680 28.682
10/20/2015 15:00 to 14:10 28.686 28.696 28.694 28.693 28.690 28.691
10/20/2015 14:00 to 13:10 28.693 28.699 28.699 28.703 28.702 28.703
10/20/2015 13:00 to 12:10 28.708 28.695 28.698 28.704 28.715 28.716
10/20/2015 12:00 to 11:10 28.711 28.705 28.703 28.710 28.707 28.706
10/20/2015 11:00 to 10:10 28.704 28.695 28.704 28.701 28.703 28.706
10/20/2015 10:00 to 9:10 28.710 28.710 28.710 28.722 28.717 28.734
10/20/2015 09:00 to 8:10 28.726 28.737 28.762 28.762 28.749 28.773
10/20/2015 08:00 to 7:10 28.775 28.790 28.781 28.768 28.775 28.773
10/20/2015 07:00 to 6:10 28.784 28.783 28.811 28.809 28.808 28.812
10/20/2015 06:00 to 5:10 28.817 28.794 28.804 28.812 28.858 28.883
10/20/2015 05:00 to 4:10 28.896 28.930 28.921 28.919 28.943 28.964
10/20/2015 04:00 to 3:10 28.962 28.925 28.943 28.988 29.009 29.050
10/20/2015 03:00 to 2:10 29.076 29.082 29.134 29.178 29.198 29.216
10/20/2015 02:00 to 1:10 29.234 29.281 29.273 29.249 29.309 29.380
10/20/2015 01:00 to 0:10 29.409 29.428 29.385 29.415 29.422 29.397
10/20/2015 00:00 to 23:10 29.349 29.364 29.345 29.324 29.277 29.252
10/19/2015 23:00 to 22:10 29.192 29.151 29.162 29.173 29.115 29.056
10/19/2015 22:00 to 21:10 29.143 29.065 29.011 28.970 28.924 28.889
10/19/2015 21:00 to 20:10 28.851 28.848 28.824 28.784 28.760 28.724
10/19/2015 20:00 to 19:10 28.700 28.696 28.683 28.675 28.668 28.678
10/19/2015 19:00 to 18:10 28.672 28.661 28.639 28.635 28.629 28.622
10/19/2015 18:00 to 17:10 28.619 28.614 28.613 28.607 28.602 28.600
10/19/2015 17:00 to 16:10 28.598 28.597 28.595 28.593 28.588 28.591
10/19/2015 16:00 to 15:10 28.586 28.590 28.589 28.587 28.583 28.591
10/19/2015 15:00 to 14:10 28.594 28.588 28.588 28.596 28.589 28.598
10/19/2015 14:00 to 13:10 28.595 28.597 28.593 28.596 28.601 28.599
10/19/2015 13:00 to 12:10 28.601 28.608 28.601 28.607 28.611 28.605
10/19/2015 12:00 to 11:10 28.611 28.613 28.613 28.615 28.618 28.621
10/19/2015 11:00 to 10:10 28.624 28.624 28.626 28.626 28.628 28.629
10/19/2015 10:00 to 9:10 28.633 28.630 28.636 28.631 28.630 28.635
10/19/2015 09:00 to 8:10 28.633 28.628 28.627 28.619 28.628 28.630
10/19/2015 08:00 to 7:10 28.631 28.627 28.637 28.636 28.639 28.637
10/19/2015 07:00 to 6:10 28.637 28.641 28.641 28.643 28.648 28.645
10/19/2015 06:00 to 5:10 28.645 28.640 28.639 28.645 28.644 28.645
10/19/2015 05:00 to 4:10 28.658 28.672 28.677 28.668 28.674 28.673
10/19/2015 04:00 to 3:10 28.685 28.693 28.691 28.693 28.688 28.684
10/19/2015 03:00 to 2:10 28.696 28.706 28.713 28.721 28.729 28.731
10/19/2015 02:00 to 1:10 28.738 28.734 28.744 28.747 28.758 28.779
10/19/2015 01:00 to 0:10 28.792 28.785 28.781 28.794 28.797 28.800

 

 

 

Conductivity [S/m]     6 entries per hour
Showing data from 10/20/2015 (20:00:00 Z) to 10/19/2015 (00:00:01 Z)
Previous Next [ Day | 3-Days | 7-Days ]
First Last
Prev [ Day | 3-Days | 7-Days ] Next
First Last

Start Time:     :
End Time:     :     
Time (in GMT) :00 :50 :40 :30 :20 :10
Previous Next [ Day | 3-Days | 7-Days ]
First Last
Prev [ Day | 3-Days | 7-Days ] Next
First Last


123 => good data
MM => data is determined as missing
-- => data not received/configured
Back to Top Back to Top
10/20/2015 20:00 to 19:10 5.66544 5.66451 5.66326 5.66320 5.66432 5.66246
10/20/2015 19:00 to 18:10 5.66331 5.66151 5.66230 5.66121 5.66094 5.65955
10/20/2015 18:00 to 17:10 5.66007 5.65985 5.66059 5.65916 5.65830 5.65809
10/20/2015 17:00 to 16:10 5.65671 5.65638 5.65597 5.65459 5.65421 5.65487
10/20/2015 16:00 to 15:10 5.65547 5.65501 5.65567 5.65633 5.65616 5.65671
10/20/2015 15:00 to 14:10 5.65726 5.65849 5.65858 5.65825 5.65831 5.65735
10/20/2015 14:00 to 13:10 5.65853 5.65881 5.65988 5.66010 5.65905 5.65814
10/20/2015 13:00 to 12:10 5.65683 5.65115 5.65457 5.65335 5.65960 5.66157
10/20/2015 12:00 to 11:10 5.66048 5.66073 5.65977 5.66170 5.65894 5.66093
10/20/2015 11:00 to 10:10 5.66046 5.65908 5.65985 5.66021 5.66040 5.66057
10/20/2015 10:00 to 9:10 5.66116 5.66134 5.66093 5.66222 5.66087 5.66416
10/20/2015 09:00 to 8:10 5.66222 5.66443 5.66811 5.66675 5.66705 5.66786
10/20/2015 08:00 to 7:10 5.66964 5.67166 5.67089 5.66983 5.66953 5.66928
10/20/2015 07:00 to 6:10 5.66969 5.67224 5.67441 5.67375 5.67321 5.67644
10/20/2015 06:00 to 5:10 5.67581 5.67256 5.67428 5.67471 5.67920 5.68299
10/20/2015 05:00 to 4:10 5.68215 5.68823 5.68100 5.69317 5.68480 5.68229
10/20/2015 04:00 to 3:10 5.68302 5.68406 5.68678 5.70388 5.68713 5.69977
10/20/2015 03:00 to 2:10 5.70110 5.70094 5.70533 5.71265 5.71960 5.72440
10/20/2015 02:00 to 1:10 5.71549 5.72562 5.72661 5.72714 5.72553 5.74797
10/20/2015 01:00 to 0:10 5.74442 5.75042 5.74101 5.74236 5.74414 5.74578
10/20/2015 00:00 to 23:10 5.73613 5.74520 5.73657 5.73679 5.73035 5.72761
10/19/2015 23:00 to 22:10 5.71786 5.73063 5.72560 5.72178 5.72521 5.72615
10/19/2015 22:00 to 21:10 5.72024 5.71599 5.69927 5.70418 5.69308 5.69690
10/19/2015 21:00 to 20:10 5.68672 5.69817 5.68563 5.67983 5.67730 5.66926
10/19/2015 20:00 to 19:10 5.67989 5.67816 5.66571 5.67191 5.67464 5.67379
10/19/2015 19:00 to 18:10 5.67341 5.66500 5.66602 5.66397 5.66708 5.66643
10/19/2015 18:00 to 17:10 5.66082 5.66686 5.66465 5.66454 5.65948 5.65850
10/19/2015 17:00 to 16:10 5.65818 5.66193 5.66181 5.66943 5.66030 5.66046
10/19/2015 16:00 to 15:10 5.66019 5.66103 5.66089 5.66035 5.66027 5.66082
10/19/2015 15:00 to 14:10 5.66096 5.66043 5.66066 5.66129 5.66133 5.65628
10/19/2015 14:00 to 13:10 5.66421 5.65926 5.65399 5.67265 5.66479 5.65471
10/19/2015 13:00 to 12:10 5.66115 5.65803 5.65361 5.66563 5.66318 5.66937
10/19/2015 12:00 to 11:10 5.67008 5.65871 5.67350 5.66065 5.66281 5.66021
10/19/2015 11:00 to 10:10 5.66264 5.65735 5.66413 5.66016 5.66476 5.66473
10/19/2015 10:00 to 9:10 5.66430 5.66836 5.66752 5.66264 5.66250 5.66345
10/19/2015 09:00 to 8:10 5.66681 5.66577 5.67259 5.66539 5.66266 5.66272
10/19/2015 08:00 to 7:10 5.66250 5.66558 5.66378 5.66430 5.66842 5.66062
10/19/2015 07:00 to 6:10 5.67418 5.66394 5.66722 5.66872 5.65625 5.66810
10/19/2015 06:00 to 5:10 5.65358 5.65694 5.65413 5.65991 5.67065 5.65520
10/19/2015 05:00 to 4:10 5.65577 5.65933 5.66855 5.66702 5.66730 5.66802
10/19/2015 04:00 to 3:10 5.68350 5.68465 5.67456 5.68011 5.66811 5.66854
10/19/2015 03:00 to 2:10 5.67484 5.68197 5.68136 5.67647 5.66788 5.67298
10/19/2015 02:00 to 1:10 5.67338 5.67489 5.67456 5.67508 5.68884 5.67425
10/19/2015 01:00 to 0:10 5.68017 5.67827 5.68393 5.68109 5.67998 5.68978

 

 

 

Salinity [psu]     6 entries per hour
Showing data from 10/20/2015 (20:00:00 Z) to 10/19/2015 (00:00:01 Z)
Previous Next [ Day | 3-Days | 7-Days ]
First Last
Prev [ Day | 3-Days | 7-Days ] Next
First Last

Start Time:     :
End Time:     :     
Time (in GMT) :00 :50 :40 :30 :20 :10
Previous Next [ Day | 3-Days | 7-Days ]
First Last
Prev [ Day | 3-Days | 7-Days ] Next
First Last


123 => good data
MM => data is determined as missing
-- => data not received/configured
Back to Top Back to Top
10/20/2015 20:00 to 19:10 34.73 34.72 34.72 34.72 34.73 34.72
10/20/2015 19:00 to 18:10 34.73 34.72 34.73 34.73 34.73 34.72
10/20/2015 18:00 to 17:10 34.73 34.73 34.73 34.73 34.73 34.73
10/20/2015 17:00 to 16:10 34.73 34.73 34.73 34.73 34.73 34.73
10/20/2015 16:00 to 15:10 34.73 34.73 34.73 34.73 34.73 34.73
10/20/2015 15:00 to 14:10 34.73 34.74 34.74 34.74 34.74 34.73
10/20/2015 14:00 to 13:10 34.74 34.74 34.74 34.74 34.74 34.73
10/20/2015 13:00 to 12:10 34.72 34.69 34.71 34.69 34.73 34.74
10/20/2015 12:00 to 11:10 34.74 34.74 34.74 34.75 34.73 34.75
10/20/2015 11:00 to 10:10 34.74 34.74 34.74 34.74 34.74 34.74
10/20/2015 10:00 to 9:10 34.74 34.75 34.74 34.74 34.74 34.75
10/20/2015 09:00 to 8:10 34.74 34.75 34.75 34.74 34.76 34.74
10/20/2015 08:00 to 7:10 34.75 34.76 34.76 34.76 34.75 34.75
10/20/2015 07:00 to 6:10 34.75 34.77 34.76 34.76 34.76 34.77
10/20/2015 06:00 to 5:10 34.77 34.76 34.77 34.76 34.76 34.77
10/20/2015 05:00 to 4:10 34.75 34.77 34.73 34.81 34.74 34.70
10/20/2015 04:00 to 3:10 34.71 34.75 34.75 34.84 34.71 34.76
10/20/2015 03:00 to 2:10 34.75 34.75 34.74 34.76 34.79 34.81
10/20/2015 02:00 to 1:10 34.74 34.77 34.78 34.81 34.75 34.85
10/20/2015 01:00 to 0:10 34.81 34.83 34.80 34.79 34.80 34.83
10/20/2015 00:00 to 23:10 34.79 34.85 34.80 34.82 34.81 34.81
10/19/2015 23:00 to 22:10 34.78 34.90 34.86 34.82 34.89 34.94
10/19/2015 22:00 to 21:10 34.83 34.86 34.79 34.85 34.81 34.86
10/19/2015 21:00 to 20:10 34.82 34.90 34.83 34.82 34.82 34.79
10/19/2015 20:00 to 19:10 34.88 34.87 34.80 34.84 34.87 34.85
10/19/2015 19:00 to 18:10 34.86 34.81 34.83 34.82 34.84 34.85
10/19/2015 18:00 to 17:10 34.81 34.85 34.84 34.84 34.81 34.81
10/19/2015 17:00 to 16:10 34.81 34.83 34.83 34.89 34.83 34.83
10/19/2015 16:00 to 15:10 34.83 34.83 34.83 34.83 34.83 34.83
10/19/2015 15:00 to 14:10 34.83 34.83 34.83 34.83 34.83 34.79
10/19/2015 14:00 to 13:10 34.85 34.81 34.78 34.91 34.85 34.78
10/19/2015 13:00 to 12:10 34.82 34.80 34.77 34.85 34.83 34.88
10/19/2015 12:00 to 11:10 34.88 34.80 34.90 34.81 34.82 34.80
10/19/2015 11:00 to 10:10 34.82 34.78 34.83 34.80 34.83 34.83
10/19/2015 10:00 to 9:10 34.82 34.85 34.84 34.81 34.81 34.81
10/19/2015 09:00 to 8:10 34.84 34.84 34.88 34.84 34.81 34.81
10/19/2015 08:00 to 7:10 34.81 34.84 34.82 34.82 34.85 34.79
10/19/2015 07:00 to 6:10 34.89 34.81 34.84 34.85 34.76 34.84
10/19/2015 06:00 to 5:10 34.74 34.77 34.75 34.78 34.86 34.75
10/19/2015 05:00 to 4:10 34.74 34.76 34.82 34.82 34.81 34.82
10/19/2015 04:00 to 3:10 34.92 34.92 34.85 34.89 34.81 34.81
10/19/2015 03:00 to 2:10 34.85 34.89 34.88 34.84 34.78 34.81
10/19/2015 02:00 to 1:10 34.81 34.82 34.81 34.81 34.90 34.78
10/19/2015 01:00 to 0:10 34.82 34.81 34.85 34.82 34.81 34.88